sensor_id;sensor_type;location;lat;lon;timestamp;P1;durP1;ratioP1;P2;durP2;ratioP2
37791;SDS011;29527;55.766;37.570;2023-10-13T00:00:28;5.90;;;1.08;;
37791;SDS011;29527;55.766;37.570;2023-10-13T00:03:00;4.65;;;1.08;;
37791;SDS011;29527;55.766;37.570;2023-10-13T00:05:29;7.53;;;1.30;;
37791;SDS011;29527;55.766;37.570;2023-10-13T00:07:59;7.03;;;1.17;;
37791;SDS011;29527;55.766;37.570;2023-10-13T00:10:29;5.90;;;1.02;;
37791;SDS011;29527;55.766;37.570;2023-10-13T00:12:56;5.38;;;1.05;;
37791;SDS011;29527;55.766;37.570;2023-10-13T00:15:43;4.03;;;1.02;;
37791;SDS011;29527;55.766;37.570;2023-10-13T00:18:22;3.72;;;0.90;;
37791;SDS011;29527;55.766;37.570;2023-10-13T00:20:53;4.00;;;1.00;;
37791;SDS011;29527;55.766;37.570;2023-10-13T00:23:22;5.13;;;0.90;;
37791;SDS011;29527;55.766;37.570;2023-10-13T00:25:51;5.60;;;1.15;;
37791;SDS011;29527;55.766;37.570;2023-10-13T00:28:26;6.57;;;1.38;;
37791;SDS011;29527;55.766;37.570;2023-10-13T00:31:00;6.35;;;0.98;;
37791;SDS011;29527;55.766;37.570;2023-10-13T00:33:36;2.00;;;0.80;;
37791;SDS011;29527;55.766;37.570;2023-10-13T00:36:03;4.10;;;1.10;;
37791;SDS011;29527;55.766;37.570;2023-10-13T00:38:30;5.00;;;1.13;;
37791;SDS011;29527;55.766;37.570;2023-10-13T00:40:56;6.32;;;1.17;;
37791;SDS011;29527;55.766;37.570;2023-10-13T00:43:28;5.78;;;1.08;;
37791;SDS011;29527;55.766;37.570;2023-10-13T00:45:57;7.72;;;1.27;;
37791;SDS011;29527;55.766;37.570;2023-10-13T00:48:35;4.68;;;0.80;;
37791;SDS011;29527;55.766;37.570;2023-10-13T00:51:08;3.17;;;0.80;;
37791;SDS011;29527;55.766;37.570;2023-10-13T00:53:44;4.10;;;1.02;;
37791;SDS011;29527;55.766;37.570;2023-10-13T00:56:10;3.47;;;0.90;;
37791;SDS011;29527;55.766;37.570;2023-10-13T00:58:46;6.60;;;1.52;;
37791;SDS011;29527;55.766;37.570;2023-10-13T01:01:15;5.40;;;1.20;;
37791;SDS011;29527;55.766;37.570;2023-10-13T01:03:47;6.18;;;1.63;;
37791;SDS011;29527;55.766;37.570;2023-10-13T01:06:18;5.05;;;1.20;;
37791;SDS011;29527;55.766;37.570;2023-10-13T01:08:46;7.43;;;1.00;;
37791;SDS011;29527;55.766;37.570;2023-10-13T01:11:19;4.65;;;1.02;;
37791;SDS011;29527;55.766;37.570;2023-10-13T01:13:45;5.63;;;1.35;;
37791;SDS011;29527;55.766;37.570;2023-10-13T01:16:16;4.20;;;0.88;;
37791;SDS011;29527;55.766;37.570;2023-10-13T01:18:43;7.82;;;1.20;;
37791;SDS011;29527;55.766;37.570;2023-10-13T01:21:17;7.05;;;1.50;;
37791;SDS011;29527;55.766;37.570;2023-10-13T01:23:51;3.63;;;0.85;;
37791;SDS011;29527;55.766;37.570;2023-10-13T01:26:17;5.43;;;0.98;;
37791;SDS011;29527;55.766;37.570;2023-10-13T01:28:47;5.82;;;1.00;;
37791;SDS011;29527;55.766;37.570;2023-10-13T01:31:13;6.93;;;1.40;;
37791;SDS011;29527;55.766;37.570;2023-10-13T01:33:53;2.85;;;0.77;;
37791;SDS011;29527;55.766;37.570;2023-10-13T01:36:20;4.35;;;0.90;;
37791;SDS011;29527;55.766;37.570;2023-10-13T01:38:47;6.95;;;1.48;;
37791;SDS011;29527;55.766;37.570;2023-10-13T01:41:14;5.03;;;1.13;;
37791;SDS011;29527;55.766;37.570;2023-10-13T01:43:41;7.28;;;1.35;;
37791;SDS011;29527;55.766;37.570;2023-10-13T01:46:07;5.15;;;1.23;;
37791;SDS011;29527;55.766;37.570;2023-10-13T01:48:34;5.55;;;1.00;;
37791;SDS011;29527;55.766;37.570;2023-10-13T01:51:04;5.97;;;1.42;;
37791;SDS011;29527;55.766;37.570;2023-10-13T01:53:31;4.50;;;1.10;;
37791;SDS011;29527;55.766;37.570;2023-10-13T01:55:56;6.78;;;1.38;;
37791;SDS011;29527;55.766;37.570;2023-10-13T01:58:22;5.50;;;1.25;;
37791;SDS011;29527;55.766;37.570;2023-10-13T02:00:51;2.08;;;0.80;;
37791;SDS011;29527;55.766;37.570;2023-10-13T02:03:17;4.47;;;1.00;;
37791;SDS011;29527;55.766;37.570;2023-10-13T02:05:43;10.07;;;1.27;;
37791;SDS011;29527;55.766;37.570;2023-10-13T02:08:15;5.35;;;1.05;;
37791;SDS011;29527;55.766;37.570;2023-10-13T02:10:51;3.30;;;0.80;;
37791;SDS011;29527;55.766;37.570;2023-10-13T02:13:20;4.18;;;1.00;;
37791;SDS011;29527;55.766;37.570;2023-10-13T02:15:52;7.68;;;1.08;;
37791;SDS011;29527;55.766;37.570;2023-10-13T02:18:23;4.55;;;1.13;;
37791;SDS011;29527;55.766;37.570;2023-10-13T02:20:53;4.43;;;1.00;;
37791;SDS011;29527;55.766;37.570;2023-10-13T02:23:21;7.03;;;1.00;;
37791;SDS011;29527;55.766;37.570;2023-10-13T02:25:47;4.25;;;1.02;;
37791;SDS011;29527;55.766;37.570;2023-10-13T02:28:17;7.40;;;1.30;;
37791;SDS011;29527;55.766;37.570;2023-10-13T02:30:47;4.30;;;1.05;;
37791;SDS011;29527;55.766;37.570;2023-10-13T02:33:18;6.80;;;1.08;;
37791;SDS011;29527;55.766;37.570;2023-10-13T02:35:47;7.05;;;1.52;;
37791;SDS011;29527;55.766;37.570;2023-10-13T02:38:20;7.95;;;1.23;;
37791;SDS011;29527;55.766;37.570;2023-10-13T02:40:53;4.05;;;1.27;;
37791;SDS011;29527;55.766;37.570;2023-10-13T02:43:20;6.20;;;1.45;;
37791;SDS011;29527;55.766;37.570;2023-10-13T02:45:54;7.75;;;1.38;;
37791;SDS011;29527;55.766;37.570;2023-10-13T02:48:27;7.05;;;1.30;;
37791;SDS011;29527;55.766;37.570;2023-10-13T02:51:05;6.93;;;1.20;;
37791;SDS011;29527;55.766;37.570;2023-10-13T02:56:15;6.45;;;1.30;;
37791;SDS011;29527;55.766;37.570;2023-10-13T02:58:48;4.80;;;1.15;;
37791;SDS011;29527;55.766;37.570;2023-10-13T03:01:31;7.15;;;1.30;;
37791;SDS011;29527;55.766;37.570;2023-10-13T03:04:01;8.65;;;1.27;;
37791;SDS011;29527;55.766;37.570;2023-10-13T03:06:34;6.60;;;1.10;;
37791;SDS011;29527;55.766;37.570;2023-10-13T03:09:05;6.00;;;1.40;;
37791;SDS011;29527;55.766;37.570;2023-10-13T03:11:59;4.72;;;1.15;;
37791;SDS011;29527;55.766;37.570;2023-10-13T03:14:24;6.03;;;0.95;;
37791;SDS011;29527;55.766;37.570;2023-10-13T03:17:02;5.70;;;1.30;;
37791;SDS011;29527;55.766;37.570;2023-10-13T03:19:34;5.28;;;1.40;;
37791;SDS011;29527;55.766;37.570;2023-10-13T03:22:02;5.13;;;1.70;;
37791;SDS011;29527;55.766;37.570;2023-10-13T03:24:42;11.63;;;1.95;;
37791;SDS011;29527;55.766;37.570;2023-10-13T03:27:13;5.88;;;1.15;;
37791;SDS011;29527;55.766;37.570;2023-10-13T03:29:43;5.85;;;1.20;;
37791;SDS011;29527;55.766;37.570;2023-10-13T03:32:10;7.78;;;1.40;;
37791;SDS011;29527;55.766;37.570;2023-10-13T03:34:40;7.88;;;1.45;;
37791;SDS011;29527;55.766;37.570;2023-10-13T03:37:37;7.28;;;1.08;;
37791;SDS011;29527;55.766;37.570;2023-10-13T03:42:53;5.35;;;1.20;;
37791;SDS011;29527;55.766;37.570;2023-10-13T03:45:35;5.95;;;1.00;;
37791;SDS011;29527;55.766;37.570;2023-10-13T03:48:06;6.45;;;1.30;;
37791;SDS011;29527;55.766;37.570;2023-10-13T03:50:40;5.03;;;1.38;;
37791;SDS011;29527;55.766;37.570;2023-10-13T03:53:14;9.60;;;1.40;;
37791;SDS011;29527;55.766;37.570;2023-10-13T03:55:40;7.95;;;1.67;;
37791;SDS011;29527;55.766;37.570;2023-10-13T03:58:13;4.30;;;1.20;;
37791;SDS011;29527;55.766;37.570;2023-10-13T04:00:39;5.25;;;1.05;;
37791;SDS011;29527;55.766;37.570;2023-10-13T04:03:08;5.32;;;1.35;;
37791;SDS011;29527;55.766;37.570;2023-10-13T04:05:41;5.15;;;1.55;;
37791;SDS011;29527;55.766;37.570;2023-10-13T04:08:11;6.50;;;1.52;;
37791;SDS011;29527;55.766;37.570;2023-10-13T04:10:53;7.78;;;1.13;;
37791;SDS011;29527;55.766;37.570;2023-10-13T04:13:20;4.03;;;1.35;;
37791;SDS011;29527;55.766;37.570;2023-10-13T04:16:04;3.30;;;1.08;;
37791;SDS011;29527;55.766;37.570;2023-10-13T04:18:48;8.27;;;1.30;;
37791;SDS011;29527;55.766;37.570;2023-10-13T04:21:21;5.32;;;1.27;;
37791;SDS011;29527;55.766;37.570;2023-10-13T04:24:08;6.57;;;1.20;;
37791;SDS011;29527;55.766;37.570;2023-10-13T04:26:50;6.20;;;1.60;;
37791;SDS011;29527;55.766;37.570;2023-10-13T04:29:46;6.50;;;1.45;;
37791;SDS011;29527;55.766;37.570;2023-10-13T04:32:31;7.25;;;1.20;;
37791;SDS011;29527;55.766;37.570;2023-10-13T04:35:04;7.60;;;1.52;;
37791;SDS011;29527;55.766;37.570;2023-10-13T04:37:36;5.93;;;1.30;;
37791;SDS011;29527;55.766;37.570;2023-10-13T04:40:17;6.30;;;1.38;;
37791;SDS011;29527;55.766;37.570;2023-10-13T04:42:46;7.60;;;1.58;;
37791;SDS011;29527;55.766;37.570;2023-10-13T04:45:18;5.72;;;1.52;;
37791;SDS011;29527;55.766;37.570;2023-10-13T04:47:56;6.05;;;1.40;;
37791;SDS011;29527;55.766;37.570;2023-10-13T04:50:40;8.65;;;1.60;;
37791;SDS011;29527;55.766;37.570;2023-10-13T04:53:14;6.53;;;1.38;;
37791;SDS011;29527;55.766;37.570;2023-10-13T04:55:57;6.50;;;1.50;;
37791;SDS011;29527;55.766;37.570;2023-10-13T04:58:30;5.75;;;1.15;;
37791;SDS011;29527;55.766;37.570;2023-10-13T05:01:04;5.30;;;1.67;;
37791;SDS011;29527;55.766;37.570;2023-10-13T05:04:08;10.20;;;1.58;;
37791;SDS011;29527;55.766;37.570;2023-10-13T05:06:34;4.47;;;1.33;;
37791;SDS011;29527;55.766;37.570;2023-10-13T05:09:12;5.95;;;1.40;;
37791;SDS011;29527;55.766;37.570;2023-10-13T05:11:56;4.45;;;1.30;;
37791;SDS011;29527;55.766;37.570;2023-10-13T05:14:40;6.25;;;1.38;;
37791;SDS011;29527;55.766;37.570;2023-10-13T05:17:24;4.82;;;1.35;;
37791;SDS011;29527;55.766;37.570;2023-10-13T05:20:08;7.63;;;0.95;;
37791;SDS011;29527;55.766;37.570;2023-10-13T05:22:53;7.22;;;1.30;;
37791;SDS011;29527;55.766;37.570;2023-10-13T05:25:37;5.10;;;1.65;;
37791;SDS011;29527;55.766;37.570;2023-10-13T05:28:22;10.40;;;1.50;;
37791;SDS011;29527;55.766;37.570;2023-10-13T05:31:09;4.50;;;1.35;;
37791;SDS011;29527;55.766;37.570;2023-10-13T05:33:53;5.65;;;1.50;;
37791;SDS011;29527;55.766;37.570;2023-10-13T05:36:37;7.60;;;1.40;;
37791;SDS011;29527;55.766;37.570;2023-10-13T05:39:21;7.20;;;1.85;;
37791;SDS011;29527;55.766;37.570;2023-10-13T05:42:05;5.07;;;1.48;;
37791;SDS011;29527;55.766;37.570;2023-10-13T05:44:49;3.28;;;1.25;;
37791;SDS011;29527;55.766;37.570;2023-10-13T05:47:38;4.22;;;1.35;;
37791;SDS011;29527;55.766;37.570;2023-10-13T05:50:04;4.95;;;1.30;;
37791;SDS011;29527;55.766;37.570;2023-10-13T05:52:38;6.80;;;1.53;;
37791;SDS011;29527;55.766;37.570;2023-10-13T05:55:19;4.60;;;1.30;;
37791;SDS011;29527;55.766;37.570;2023-10-13T05:58:03;6.70;;;1.15;;
37791;SDS011;29527;55.766;37.570;2023-10-13T06:00:47;4.40;;;1.30;;
37791;SDS011;29527;55.766;37.570;2023-10-13T06:03:30;8.60;;;1.20;;
37791;SDS011;29527;55.766;37.570;2023-10-13T06:06:14;5.93;;;1.20;;
37791;SDS011;29527;55.766;37.570;2023-10-13T06:08:58;5.47;;;1.50;;
37791;SDS011;29527;55.766;37.570;2023-10-13T06:11:42;4.93;;;1.35;;
37791;SDS011;29527;55.766;37.570;2023-10-13T06:14:25;4.32;;;1.15;;
37791;SDS011;29527;55.766;37.570;2023-10-13T06:17:09;8.25;;;1.35;;
37791;SDS011;29527;55.766;37.570;2023-10-13T06:19:58;7.53;;;1.58;;
37791;SDS011;29527;55.766;37.570;2023-10-13T06:22:42;4.47;;;1.63;;
37791;SDS011;29527;55.766;37.570;2023-10-13T06:25:26;4.00;;;1.10;;
37791;SDS011;29527;55.766;37.570;2023-10-13T06:28:10;5.30;;;1.30;;
37791;SDS011;29527;55.766;37.570;2023-10-13T06:30:55;7.75;;;1.40;;
37791;SDS011;29527;55.766;37.570;2023-10-13T06:33:22;7.43;;;1.20;;
37791;SDS011;29527;55.766;37.570;2023-10-13T06:35:55;5.25;;;1.10;;
37791;SDS011;29527;55.766;37.570;2023-10-13T06:38:22;3.63;;;1.02;;
37791;SDS011;29527;55.766;37.570;2023-10-13T06:40:48;7.03;;;1.63;;
37791;SDS011;29527;55.766;37.570;2023-10-13T06:43:15;6.72;;;0.98;;
37791;SDS011;29527;55.766;37.570;2023-10-13T06:45:45;3.05;;;1.00;;
37791;SDS011;29527;55.766;37.570;2023-10-13T06:48:33;3.40;;;1.15;;
37791;SDS011;29527;55.766;37.570;2023-10-13T06:51:00;3.28;;;1.20;;
37791;SDS011;29527;55.766;37.570;2023-10-13T06:53:37;3.05;;;0.95;;
37791;SDS011;29527;55.766;37.570;2023-10-13T06:56:06;3.75;;;0.80;;
37791;SDS011;29527;55.766;37.570;2023-10-13T06:58:32;4.53;;;1.00;;
37791;SDS011;29527;55.766;37.570;2023-10-13T07:00:58;3.25;;;0.70;;
37791;SDS011;29527;55.766;37.570;2023-10-13T07:03:24;3.10;;;0.68;;
37791;SDS011;29527;55.766;37.570;2023-10-13T07:05:51;4.43;;;0.90;;
37791;SDS011;29527;55.766;37.570;2023-10-13T07:08:18;6.47;;;1.00;;
37791;SDS011;29527;55.766;37.570;2023-10-13T07:10:51;3.03;;;0.80;;
37791;SDS011;29527;55.766;37.570;2023-10-13T07:13:28;2.63;;;1.00;;
37791;SDS011;29527;55.766;37.570;2023-10-13T07:15:54;1.75;;;0.73;;
37791;SDS011;29527;55.766;37.570;2023-10-13T07:18:25;2.97;;;1.30;;
37791;SDS011;29527;55.766;37.570;2023-10-13T07:20:51;2.28;;;0.80;;
37791;SDS011;29527;55.766;37.570;2023-10-13T07:23:22;4.10;;;0.85;;
37791;SDS011;29527;55.766;37.570;2023-10-13T07:25:53;2.80;;;1.10;;
37791;SDS011;29527;55.766;37.570;2023-10-13T07:28:21;4.45;;;1.20;;
37791;SDS011;29527;55.766;37.570;2023-10-13T07:30:47;2.67;;;1.02;;
37791;SDS011;29527;55.766;37.570;2023-10-13T07:33:18;4.43;;;1.00;;
37791;SDS011;29527;55.766;37.570;2023-10-13T07:35:46;3.60;;;0.80;;
37791;SDS011;29527;55.766;37.570;2023-10-13T07:38:16;2.35;;;0.85;;
37791;SDS011;29527;55.766;37.570;2023-10-13T07:40:42;4.28;;;0.98;;
37791;SDS011;29527;55.766;37.570;2023-10-13T07:43:16;5.13;;;0.80;;
37791;SDS011;29527;55.766;37.570;2023-10-13T07:45:46;6.63;;;1.00;;
37791;SDS011;29527;55.766;37.570;2023-10-13T07:48:17;2.53;;;0.88;;
37791;SDS011;29527;55.766;37.570;2023-10-13T07:51:02;4.03;;;0.90;;
37791;SDS011;29527;55.766;37.570;2023-10-13T07:53:29;2.97;;;0.88;;
37791;SDS011;29527;55.766;37.570;2023-10-13T07:56:00;5.45;;;1.10;;
37791;SDS011;29527;55.766;37.570;2023-10-13T07:58:39;2.72;;;0.80;;
37791;SDS011;29527;55.766;37.570;2023-10-13T08:01:26;5.28;;;0.80;;
37791;SDS011;29527;55.766;37.570;2023-10-13T08:03:52;4.38;;;0.98;;
37791;SDS011;29527;55.766;37.570;2023-10-13T08:06:37;6.32;;;0.85;;
37791;SDS011;29527;55.766;37.570;2023-10-13T08:09:06;4.80;;;0.82;;
37791;SDS011;29527;55.766;37.570;2023-10-13T08:11:33;4.68;;;1.05;;
37791;SDS011;29527;55.766;37.570;2023-10-13T08:14:03;4.22;;;0.85;;
37791;SDS011;29527;55.766;37.570;2023-10-13T08:16:39;4.63;;;0.80;;
37791;SDS011;29527;55.766;37.570;2023-10-13T08:19:18;4.00;;;0.90;;
37791;SDS011;29527;55.766;37.570;2023-10-13T08:22:05;1.67;;;0.90;;
37791;SDS011;29527;55.766;37.570;2023-10-13T08:29:41;5.15;;;0.90;;
37791;SDS011;29527;55.766;37.570;2023-10-13T08:32:19;4.57;;;0.90;;
37791;SDS011;29527;55.766;37.570;2023-10-13T08:42:26;4.07;;;0.80;;
37791;SDS011;29527;55.766;37.570;2023-10-13T08:45:07;5.05;;;0.73;;
37791;SDS011;29527;55.766;37.570;2023-10-13T08:48:06;3.38;;;0.90;;
37791;SDS011;29527;55.766;37.570;2023-10-13T08:50:39;4.43;;;0.82;;
37791;SDS011;29527;55.766;37.570;2023-10-13T08:53:18;3.78;;;0.80;;
37791;SDS011;29527;55.766;37.570;2023-10-13T08:55:57;3.15;;;0.85;;
37791;SDS011;29527;55.766;37.570;2023-10-13T08:58:39;5.18;;;1.10;;
37791;SDS011;29527;55.766;37.570;2023-10-13T09:01:25;2.15;;;0.70;;
37791;SDS011;29527;55.766;37.570;2023-10-13T09:04:02;5.90;;;0.80;;
37791;SDS011;29527;55.766;37.570;2023-10-13T09:06:45;4.15;;;1.20;;
37791;SDS011;29527;55.766;37.570;2023-10-13T09:09:30;3.10;;;0.85;;
37791;SDS011;29527;55.766;37.570;2023-10-13T09:12:12;3.55;;;0.90;;
37791;SDS011;29527;55.766;37.570;2023-10-13T09:14:40;3.03;;;0.60;;
37791;SDS011;29527;55.766;37.570;2023-10-13T09:17:10;4.82;;;1.10;;
37791;SDS011;29527;55.766;37.570;2023-10-13T09:19:44;4.85;;;0.60;;
37791;SDS011;29527;55.766;37.570;2023-10-13T09:22:21;7.70;;;0.90;;
37791;SDS011;29527;55.766;37.570;2023-10-13T09:24:56;3.38;;;1.05;;
37791;SDS011;29527;55.766;37.570;2023-10-13T09:27:26;7.65;;;1.10;;
37791;SDS011;29527;55.766;37.570;2023-10-13T09:29:59;4.20;;;1.00;;
37791;SDS011;29527;55.766;37.570;2023-10-13T09:32:47;5.57;;;1.13;;
37791;SDS011;29527;55.766;37.570;2023-10-13T09:35:19;3.08;;;1.00;;
37791;SDS011;29527;55.766;37.570;2023-10-13T09:37:49;3.75;;;1.20;;
37791;SDS011;29527;55.766;37.570;2023-10-13T09:40:18;2.47;;;0.93;;
37791;SDS011;29527;55.766;37.570;2023-10-13T09:43:03;4.60;;;1.05;;
37791;SDS011;29527;55.766;37.570;2023-10-13T09:45:33;1.83;;;0.80;;
37791;SDS011;29527;55.766;37.570;2023-10-13T09:50:47;3.50;;;0.70;;
37791;SDS011;29527;55.766;37.570;2023-10-13T09:53:17;2.88;;;0.85;;
37791;SDS011;29527;55.766;37.570;2023-10-13T09:56:03;7.03;;;1.35;;
37791;SDS011;29527;55.766;37.570;2023-10-13T10:01:17;8.55;;;1.63;;
37791;SDS011;29527;55.766;37.570;2023-10-13T10:04:06;4.63;;;1.17;;
37791;SDS011;29527;55.766;37.570;2023-10-13T10:09:18;3.97;;;0.88;;
37791;SDS011;29527;55.766;37.570;2023-10-13T10:17:23;4.72;;;0.80;;
37791;SDS011;29527;55.766;37.570;2023-10-13T10:19:55;3.67;;;0.93;;
37791;SDS011;29527;55.766;37.570;2023-10-13T10:25:05;2.22;;;1.00;;
37791;SDS011;29527;55.766;37.570;2023-10-13T10:27:32;6.18;;;1.02;;
37791;SDS011;29527;55.766;37.570;2023-10-13T10:29:59;4.15;;;0.98;;
37791;SDS011;29527;55.766;37.570;2023-10-13T10:32:36;3.97;;;0.68;;
37791;SDS011;29527;55.766;37.570;2023-10-13T10:35:09;3.70;;;1.00;;
37791;SDS011;29527;55.766;37.570;2023-10-13T10:37:45;4.75;;;0.88;;
37791;SDS011;29527;55.766;37.570;2023-10-13T10:40:17;1.58;;;0.70;;
37791;SDS011;29527;55.766;37.570;2023-10-13T10:43:15;2.42;;;0.60;;
37791;SDS011;29527;55.766;37.570;2023-10-13T10:45:46;1.88;;;0.70;;
37791;SDS011;29527;55.766;37.570;2023-10-13T10:48:14;3.78;;;0.95;;
37791;SDS011;29527;55.766;37.570;2023-10-13T10:50:44;2.10;;;0.85;;
37791;SDS011;29527;55.766;37.570;2023-10-13T10:53:19;1.92;;;0.50;;
37791;SDS011;29527;55.766;37.570;2023-10-13T10:55:48;2.95;;;0.50;;
37791;SDS011;29527;55.766;37.570;2023-10-13T10:58:14;4.80;;;1.00;;
37791;SDS011;29527;55.766;37.570;2023-10-13T11:01:06;2.90;;;0.80;;
37791;SDS011;29527;55.766;37.570;2023-10-13T11:06:27;1.77;;;0.75;;
37791;SDS011;29527;55.766;37.570;2023-10-13T11:09:02;3.50;;;0.90;;
37791;SDS011;29527;55.766;37.570;2023-10-13T11:11:30;2.95;;;0.70;;
37791;SDS011;29527;55.766;37.570;2023-10-13T11:14:01;4.43;;;0.70;;
37791;SDS011;29527;55.766;37.570;2023-10-13T11:16:48;6.03;;;0.63;;
37791;SDS011;29527;55.766;37.570;2023-10-13T11:22:13;2.65;;;0.73;;
37791;SDS011;29527;55.766;37.570;2023-10-13T11:25:03;3.15;;;0.80;;
37791;SDS011;29527;55.766;37.570;2023-10-13T11:27:38;5.40;;;0.70;;
37791;SDS011;29527;55.766;37.570;2023-10-13T11:30:17;1.80;;;0.50;;
37791;SDS011;29527;55.766;37.570;2023-10-13T11:35:33;4.63;;;1.20;;
37791;SDS011;29527;55.766;37.570;2023-10-13T11:38:18;2.08;;;0.65;;
37791;SDS011;29527;55.766;37.570;2023-10-13T11:43:47;5.32;;;0.80;;
37791;SDS011;29527;55.766;37.570;2023-10-13T11:46:15;2.22;;;0.60;;
37791;SDS011;29527;55.766;37.570;2023-10-13T11:48:42;2.08;;;0.82;;
37791;SDS011;29527;55.766;37.570;2023-10-13T11:51:09;2.83;;;0.50;;
37791;SDS011;29527;55.766;37.570;2023-10-13T11:53:57;5.32;;;0.70;;
37791;SDS011;29527;55.766;37.570;2023-10-13T11:56:23;1.33;;;0.50;;
37791;SDS011;29527;55.766;37.570;2023-10-13T11:58:50;3.65;;;0.80;;
37791;SDS011;29527;55.766;37.570;2023-10-13T12:01:17;3.20;;;0.82;;
37791;SDS011;29527;55.766;37.570;2023-10-13T12:03:44;2.78;;;0.80;;
37791;SDS011;29527;55.766;37.570;2023-10-13T12:06:32;3.95;;;0.80;;
37791;SDS011;29527;55.766;37.570;2023-10-13T12:09:06;2.50;;;0.95;;
37791;SDS011;29527;55.766;37.570;2023-10-13T12:11:48;3.90;;;0.77;;
37791;SDS011;29527;55.766;37.570;2023-10-13T12:14:19;6.05;;;1.02;;
37791;SDS011;29527;55.766;37.570;2023-10-13T12:16:50;5.13;;;1.00;;
37791;SDS011;29527;55.766;37.570;2023-10-13T12:19:17;5.97;;;1.08;;
37791;SDS011;29527;55.766;37.570;2023-10-13T12:21:43;5.88;;;1.30;;
37791;SDS011;29527;55.766;37.570;2023-10-13T12:24:10;4.68;;;1.10;;
37791;SDS011;29527;55.766;37.570;2023-10-13T12:26:50;5.35;;;1.05;;
37791;SDS011;29527;55.766;37.570;2023-10-13T12:29:22;4.00;;;0.90;;
37791;SDS011;29527;55.766;37.570;2023-10-13T12:31:48;4.55;;;1.17;;
37791;SDS011;29527;55.766;37.570;2023-10-13T12:34:30;3.38;;;0.80;;
37791;SDS011;29527;55.766;37.570;2023-10-13T12:37:14;3.33;;;0.80;;
37791;SDS011;29527;55.766;37.570;2023-10-13T12:40:06;2.38;;;0.93;;
37791;SDS011;29527;55.766;37.570;2023-10-13T12:42:51;3.97;;;0.65;;
37791;SDS011;29527;55.766;37.570;2023-10-13T12:45:39;5.47;;;0.88;;
37791;SDS011;29527;55.766;37.570;2023-10-13T12:48:23;2.55;;;0.60;;
37791;SDS011;29527;55.766;37.570;2023-10-13T12:51:07;1.92;;;0.70;;
37791;SDS011;29527;55.766;37.570;2023-10-13T12:53:48;3.42;;;0.80;;
37791;SDS011;29527;55.766;37.570;2023-10-13T12:56:15;3.92;;;0.88;;
37791;SDS011;29527;55.766;37.570;2023-10-13T12:58:41;5.75;;;1.15;;
37791;SDS011;29527;55.766;37.570;2023-10-13T13:01:16;2.63;;;0.68;;
37791;SDS011;29527;55.766;37.570;2023-10-13T13:03:45;4.78;;;1.00;;
37791;SDS011;29527;55.766;37.570;2023-10-13T13:06:18;3.42;;;0.80;;
37791;SDS011;29527;55.766;37.570;2023-10-13T13:08:57;2.45;;;0.80;;
37791;SDS011;29527;55.766;37.570;2023-10-13T13:11:23;5.07;;;1.10;;
37791;SDS011;29527;55.766;37.570;2023-10-13T13:13:49;3.75;;;1.00;;
37791;SDS011;29527;55.766;37.570;2023-10-13T13:16:17;4.70;;;1.20;;
37791;SDS011;29527;55.766;37.570;2023-10-13T13:18:45;3.90;;;0.98;;
37791;SDS011;29527;55.766;37.570;2023-10-13T13:21:11;5.07;;;0.90;;
37791;SDS011;29527;55.766;37.570;2023-10-13T13:23:46;6.57;;;1.10;;
37791;SDS011;29527;55.766;37.570;2023-10-13T13:26:12;5.85;;;1.48;;
37791;SDS011;29527;55.766;37.570;2023-10-13T13:28:41;3.85;;;1.25;;
37791;SDS011;29527;55.766;37.570;2023-10-13T13:31:07;8.55;;;1.00;;
37791;SDS011;29527;55.766;37.570;2023-10-13T13:33:34;2.53;;;0.80;;
37791;SDS011;29527;55.766;37.570;2023-10-13T13:36:06;6.63;;;1.15;;
37791;SDS011;29527;55.766;37.570;2023-10-13T13:38:32;4.15;;;0.88;;
37791;SDS011;29527;55.766;37.570;2023-10-13T13:40:59;4.50;;;0.98;;
37791;SDS011;29527;55.766;37.570;2023-10-13T13:43:27;5.18;;;0.90;;
37791;SDS011;29527;55.766;37.570;2023-10-13T13:46:18;4.93;;;0.90;;
37791;SDS011;29527;55.766;37.570;2023-10-13T13:48:50;4.13;;;0.80;;
37791;SDS011;29527;55.766;37.570;2023-10-13T13:51:17;4.55;;;1.10;;
37791;SDS011;29527;55.766;37.570;2023-10-13T13:53:51;4.03;;;1.20;;
37791;SDS011;29527;55.766;37.570;2023-10-13T13:56:18;5.60;;;1.00;;
37791;SDS011;29527;55.766;37.570;2023-10-13T13:58:44;2.67;;;0.98;;
37791;SDS011;29527;55.766;37.570;2023-10-13T14:01:11;7.32;;;1.10;;
37791;SDS011;29527;55.766;37.570;2023-10-13T14:03:54;2.92;;;1.17;;
37791;SDS011;29527;55.766;37.570;2023-10-13T14:06:28;6.15;;;1.25;;
37791;SDS011;29527;55.766;37.570;2023-10-13T14:08:55;3.13;;;1.08;;
37791;SDS011;29527;55.766;37.570;2023-10-13T14:11:22;4.50;;;1.40;;
37791;SDS011;29527;55.766;37.570;2023-10-13T14:16:41;10.00;;;1.70;;
37791;SDS011;29527;55.766;37.570;2023-10-13T14:19:16;5.70;;;1.38;;
37791;SDS011;29527;55.766;37.570;2023-10-13T14:21:54;6.88;;;1.48;;
37791;SDS011;29527;55.766;37.570;2023-10-13T14:24:24;5.90;;;1.40;;
37791;SDS011;29527;55.766;37.570;2023-10-13T14:26:57;8.63;;;1.50;;
37791;SDS011;29527;55.766;37.570;2023-10-13T14:29:33;6.47;;;1.40;;
37791;SDS011;29527;55.766;37.570;2023-10-13T14:31:59;3.85;;;1.50;;
37791;SDS011;29527;55.766;37.570;2023-10-13T14:34:25;6.40;;;1.45;;
37791;SDS011;29527;55.766;37.570;2023-10-13T14:36:51;6.35;;;1.75;;
37791;SDS011;29527;55.766;37.570;2023-10-13T14:39:19;7.00;;;1.88;;
37791;SDS011;29527;55.766;37.570;2023-10-13T14:41:46;7.28;;;1.73;;
37791;SDS011;29527;55.766;37.570;2023-10-13T14:44:16;4.88;;;1.63;;
37791;SDS011;29527;55.766;37.570;2023-10-13T14:46:41;5.35;;;1.83;;
37791;SDS011;29527;55.766;37.570;2023-10-13T14:49:07;5.45;;;1.65;;
37791;SDS011;29527;55.766;37.570;2023-10-13T14:51:33;8.98;;;1.60;;
37791;SDS011;29527;55.766;37.570;2023-10-13T14:53:59;6.65;;;1.65;;
37791;SDS011;29527;55.766;37.570;2023-10-13T14:56:25;6.03;;;2.03;;
37791;SDS011;29527;55.766;37.570;2023-10-13T14:58:52;4.78;;;1.60;;
37791;SDS011;29527;55.766;37.570;2023-10-13T15:01:19;4.20;;;1.55;;
37791;SDS011;29527;55.766;37.570;2023-10-13T15:03:50;14.45;;;2.33;;
37791;SDS011;29527;55.766;37.570;2023-10-13T15:06:24;3.70;;;1.50;;
37791;SDS011;29527;55.766;37.570;2023-10-13T15:08:51;4.47;;;1.85;;
37791;SDS011;29527;55.766;37.570;2023-10-13T15:11:23;5.05;;;1.58;;
37791;SDS011;29527;55.766;37.570;2023-10-13T15:13:55;7.22;;;1.85;;
37791;SDS011;29527;55.766;37.570;2023-10-13T15:16:22;5.45;;;1.67;;
37791;SDS011;29527;55.766;37.570;2023-10-13T15:18:49;6.72;;;1.70;;
37791;SDS011;29527;55.766;37.570;2023-10-13T15:21:24;4.65;;;1.55;;
37791;SDS011;29527;55.766;37.570;2023-10-13T15:23:53;6.35;;;1.85;;
37791;SDS011;29527;55.766;37.570;2023-10-13T15:26:24;5.88;;;1.70;;
37791;SDS011;29527;55.766;37.570;2023-10-13T15:28:50;5.28;;;1.52;;
37791;SDS011;29527;55.766;37.570;2023-10-13T15:31:21;3.08;;;1.30;;
37791;SDS011;29527;55.766;37.570;2023-10-13T15:33:52;6.45;;;1.80;;
37791;SDS011;29527;55.766;37.570;2023-10-13T15:36:22;7.65;;;1.90;;
37791;SDS011;29527;55.766;37.570;2023-10-13T15:38:49;4.03;;;1.73;;
37791;SDS011;29527;55.766;37.570;2023-10-13T15:41:20;4.07;;;1.80;;
37791;SDS011;29527;55.766;37.570;2023-10-13T15:43:47;4.80;;;1.80;;
37791;SDS011;29527;55.766;37.570;2023-10-13T15:46:15;13.60;;;2.03;;
37791;SDS011;29527;55.766;37.570;2023-10-13T15:48:42;8.15;;;1.65;;
37791;SDS011;29527;55.766;37.570;2023-10-13T15:51:11;4.97;;;1.80;;
37791;SDS011;29527;55.766;37.570;2023-10-13T15:53:41;6.25;;;2.33;;
37791;SDS011;29527;55.766;37.570;2023-10-13T15:56:13;4.20;;;2.00;;
37791;SDS011;29527;55.766;37.570;2023-10-13T15:58:42;6.25;;;1.98;;